Time;durP1;ratioP1;P1;durP2;ratioP2;P2;SDS_P1;SDS_P2;PMS_P1;PMS_P2;Temp;Humidity;BMP_temperature;BMP_pressure;BME280_temperature;BME280_humidity;BME280_pressure;Samples;Min_cycle;Max_cycle;Signal;HPM_P1;HPM_P2
2021/03/23 00:00:42;;;;;;;8.88;3.10;;;5.60;99.90;;;;;;5035461;28;20041;-66
2021/03/23 00:03:14;;;;;;;5.85;3.13;;;5.60;99.90;;;;;;5032256;28;20046;-65
2021/03/23 00:05:41;;;;;;;11.00;3.10;;;5.60;99.90;;;;;;5034459;28;20056;-65
2021/03/23 00:08:23;;;;;;;6.78;2.72;;;5.60;99.90;;;;;;5031528;28;20052;-66
2021/03/23 00:10:49;;;;;;;4.78;2.97;;;5.50;99.90;;;;;;5038417;28;20049;-66
2021/03/23 00:13:15;;;;;;;9.90;3.50;;;5.50;99.90;;;;;;5034086;28;20055;-66
2021/03/23 00:15:43;;;;;;;9.15;3.35;;;5.60;99.90;;;;;;5027687;28;20066;-66
2021/03/23 00:18:10;;;;;;;6.25;3.10;;;5.50;99.90;;;;;;5035870;28;20045;-66
2021/03/23 00:20:36;;;;;;;10.18;3.40;;;5.60;99.90;;;;;;5030328;28;20101;-65
2021/03/23 00:23:01;;;;;;;7.95;3.35;;;5.50;99.90;;;;;;5037639;28;20050;-66
2021/03/23 00:25:27;;;;;;;10.73;3.70;;;5.60;99.90;;;;;;5032141;28;20378;-65
2021/03/23 00:27:53;;;;;;;7.35;3.60;;;5.50;99.90;;;;;;5032678;28;20502;-66
2021/03/23 00:30:19;;;;;;;6.10;3.72;;;5.50;99.90;;;;;;5036700;28;20048;-65
2021/03/23 00:32:45;;;;;;;13.25;3.70;;;5.60;99.90;;;;;;5039077;28;20072;-65
2021/03/23 00:35:11;;;;;;;10.88;4.47;;;5.70;99.90;;;;;;5037076;28;20049;-65
2021/03/23 00:37:38;;;;;;;10.55;3.97;;;5.50;99.90;;;;;;5040283;28;20041;-65
2021/03/23 00:40:09;;;;;;;10.60;3.65;;;5.40;99.90;;;;;;5034471;28;20037;-65
2021/03/23 00:42:35;;;;;;;4.75;3.53;;;5.50;99.90;;;;;;5041978;28;20060;-65
2021/03/23 00:45:03;;;;;;;10.02;3.78;;;5.60;99.90;;;;;;5033785;28;20152;-65
2021/03/23 00:47:29;;;;;;;7.22;3.50;;;5.50;99.90;;;;;;5040611;28;20050;-65
2021/03/23 00:49:54;;;;;;;9.55;3.60;;;5.50;99.90;;;;;;5034010;28;20046;-65
2021/03/23 00:52:20;;;;;;;9.75;4.05;;;5.50;99.90;;;;;;5035009;28;20049;-65
2021/03/23 00:54:46;;;;;;;6.03;3.10;;;5.50;99.90;;;;;;5034075;28;20045;-65
2021/03/23 00:57:12;;;;;;;8.20;3.42;;;5.50;99.90;;;;;;5041997;28;20461;-65
2021/03/23 00:59:37;;;;;;;9.75;3.92;;;5.50;99.90;;;;;;5041835;28;20072;-65
2021/03/23 01:02:04;;;;;;;5.25;3.30;;;5.70;99.90;;;;;;5031353;28;20073;-65
2021/03/23 01:04:30;;;;;;;7.55;3.90;;;5.60;99.90;;;;;;5040643;28;20100;-65
2021/03/23 01:06:55;;;;;;;12.13;4.35;;;5.50;99.90;;;;;;5033010;28;20045;-65
2021/03/23 01:09:21;;;;;;;11.18;4.32;;;5.50;99.90;;;;;;5038816;28;20041;-65
2021/03/23 01:11:47;;;;;;;10.57;3.70;;;5.70;99.90;;;;;;5029719;28;20041;-65
2021/03/23 01:14:13;;;;;;;10.50;4.20;;;5.60;99.90;;;;;;5045806;28;20465;-65
2021/03/23 01:16:39;;;;;;;8.00;3.85;;;5.50;99.90;;;;;;5045673;28;20041;-65
2021/03/23 01:19:04;;;;;;;10.45;4.25;;;5.50;99.90;;;;;;5045819;28;20045;-65
2021/03/23 01:21:30;;;;;;;5.65;3.55;;;5.60;99.90;;;;;;5039687;28;20101;-65
2021/03/23 01:23:56;;;;;;;7.68;4.00;;;5.50;99.90;;;;;;5043641;28;20057;-65
2021/03/23 01:26:22;;;;;;;8.32;3.45;;;5.50;99.90;;;;;;5045608;28;20467;-65
2021/03/23 01:28:47;;;;;;;5.38;3.53;;;5.40;99.90;;;;;;5044846;28;20064;-65
2021/03/23 01:31:13;;;;;;;6.97;3.75;;;5.60;99.90;;;;;;5045136;28;20072;-65
2021/03/23 01:33:39;;;;;;;9.85;3.50;;;5.60;99.90;;;;;;5045695;28;20064;-65
2021/03/23 01:36:05;;;;;;;7.78;3.65;;;5.40;99.90;;;;;;5045092;28;20041;-65
2021/03/23 01:38:31;;;;;;;10.95;3.85;;;5.50;99.90;;;;;;5045069;28;20049;-66
2021/03/23 01:40:57;;;;;;;10.85;3.55;;;5.60;99.90;;;;;;5044671;28;20048;-65
2021/03/23 01:43:26;;;;;;;7.57;3.53;;;5.60;99.90;;;;;;5040944;28;20046;-65
2021/03/23 01:45:55;;;;;;;5.88;3.80;;;5.50;99.90;;;;;;5044210;28;20042;-65
2021/03/23 01:48:31;;;;;;;11.80;4.15;;;5.60;99.90;;;;;;5042360;28;20141;-65
2021/03/23 01:51:07;;;;;;;12.13;4.35;;;5.40;99.90;;;;;;5037829;28;20052;-65
2021/03/23 01:53:37;;;;;;;10.48;4.20;;;5.40;99.90;;;;;;5044554;28;20052;-65
2021/03/23 01:56:04;;;;;;;10.90;4.78;;;5.20;99.90;;;;;;5044551;28;20049;-65
2021/03/23 01:58:33;;;;;;;7.50;4.18;;;5.10;99.90;;;;;;5044770;28;20041;-65
2021/03/23 02:00:59;;;;;;;6.85;4.05;;;5.20;99.90;;;;;;5044499;28;20049;-65
2021/03/23 02:03:24;;;;;;;12.40;4.25;;;5.10;99.90;;;;;;5044931;28;20156;-65
2021/03/23 02:05:58;;;;;;;12.25;4.80;;;4.90;99.90;;;;;;5045112;28;20065;-65
2021/03/23 02:08:24;;;;;;;13.70;6.05;;;5.00;99.90;;;;;;5040122;28;20436;-65
2021/03/23 02:10:53;;;;;;;12.45;6.88;;;4.90;99.90;;;;;;5038253;28;20042;-65
2021/03/23 02:13:20;;;;;;;11.10;5.57;;;4.90;99.90;;;;;;5032201;28;20060;-65
2021/03/23 02:15:46;;;;;;;14.63;7.18;;;4.80;99.90;;;;;;5038985;28;20042;-65
2021/03/23 02:18:15;;;;;;;11.05;6.25;;;4.90;99.90;;;;;;5030655;28;20056;-65
2021/03/23 02:21:15;;;;;;;12.75;7.13;;;4.80;99.90;;;;;;5035543;28;20054;-65
2021/03/23 02:23:46;;;;;;;13.13;7.10;;;4.70;99.90;;;;;;4982005;28;20057;-65
2021/03/23 02:26:16;;;;;;;16.45;8.00;;;4.60;99.90;;;;;;4982678;28;20081;-65
2021/03/23 02:28:55;;;;;;;17.08;7.22;;;4.60;99.90;;;;;;4983186;28;20047;-65
2021/03/23 02:31:24;;;;;;;;;;;4.70;99.90;;;;;;4982394;28;20046;-65
2021/03/23 02:33:50;;;;;;;17.50;7.35;;;4.70;99.90;;;;;;4982815;28;19926;-65
2021/03/23 02:36:16;;;;;;;14.38;7.15;;;4.50;99.90;;;;;;4981269;28;20050;-65
2021/03/23 02:38:41;;;;;;;15.48;7.45;;;4.50;99.90;;;;;;4982282;28;20046;-65
2021/03/23 02:41:07;;;;;;;15.70;8.93;;;4.50;99.90;;;;;;4981917;28;20191;-65
2021/03/23 02:43:34;;;;;;;15.70;7.38;;;4.50;99.90;;;;;;4982758;28;20054;-65
2021/03/23 02:46:01;;;;;;;17.55;7.43;;;4.20;99.90;;;;;;4981666;28;20063;-65
2021/03/23 02:48:26;;;;;;;20.40;7.50;;;4.40;99.90;;;;;;4982686;28;20046;-65
2021/03/23 02:50:52;;;;;;;14.23;7.15;;;4.40;99.90;;;;;;4981581;28;20094;-65
2021/03/23 02:53:19;;;;;;;14.77;7.10;;;4.50;99.90;;;;;;4982768;28;20058;-65
2021/03/23 02:55:46;;;;;;;11.95;7.15;;;4.60;99.90;;;;;;4981462;28;20053;-65
2021/03/23 02:58:13;;;;;;;14.63;5.97;;;4.80;99.90;;;;;;4986449;28;20055;-65
2021/03/23 03:00:39;;;;;;;12.80;6.43;;;4.80;99.90;;;;;;5041830;28;20049;-65
2021/03/23 03:03:05;;;;;;;12.32;7.00;;;4.70;99.90;;;;;;5028397;28;20049;-65
2021/03/23 03:05:31;;;;;;;13.82;5.80;;;4.70;99.90;;;;;;5035903;28;20057;-65
2021/03/23 03:07:57;;;;;;;12.85;6.85;;;4.70;99.90;;;;;;5028730;28;20050;-65
2021/03/23 03:10:23;;;;;;;13.07;6.15;;;4.90;99.90;;;;;;5040630;28;20072;-65
2021/03/23 03:12:48;;;;;;;12.52;6.80;;;4.90;99.90;;;;;;5032113;28;20061;-65
2021/03/23 03:15:14;;;;;;;14.45;7.32;;;4.80;99.90;;;;;;5035878;28;20034;-65
2021/03/23 03:17:40;;;;;;;13.25;6.18;;;4.80;99.90;;;;;;5033185;28;20041;-65
2021/03/23 03:20:08;;;;;;;12.10;6.30;;;5.00;99.90;;;;;;5027397;28;20057;-65
2021/03/23 03:22:34;;;;;;;;;;;5.00;99.90;;;;;;5035840;28;20058;-65
2021/03/23 03:25:00;;;;;;;12.02;7.35;;;5.00;99.90;;;;;;5025796;28;19979;-65
2021/03/23 03:27:26;;;;;;;13.20;6.78;;;5.10;99.90;;;;;;5034295;28;20073;-65
2021/03/23 03:29:51;;;;;;;13.27;7.43;;;5.10;99.90;;;;;;5035505;28;20096;-65
2021/03/23 03:32:17;;;;;;;19.58;7.28;;;4.90;99.90;;;;;;5038827;28;20079;-65
2021/03/23 03:34:43;;;;;;;14.05;7.22;;;5.00;99.90;;;;;;5026842;28;20042;-65
2021/03/23 03:37:09;;;;;;;14.68;7.97;;;5.00;99.90;;;;;;5034678;28;20056;-65
2021/03/23 03:39:35;;;;;;;17.98;7.68;;;5.10;99.90;;;;;;5028450;28;20046;-65
2021/03/23 03:42:00;;;;;;;16.95;7.90;;;5.10;99.90;;;;;;5039285;28;20053;-65
2021/03/23 03:44:26;;;;;;;15.20;8.85;;;5.30;99.90;;;;;;5032533;28;20068;-65
2021/03/23 03:46:52;;;;;;;14.95;8.05;;;5.10;99.90;;;;;;5027873;28;20048;-65
2021/03/23 03:49:18;;;;;;;17.30;8.45;;;5.10;99.90;;;;;;5038676;28;20128;-65
2021/03/23 03:51:44;;;;;;;21.95;9.82;;;5.10;99.90;;;;;;5026609;28;20410;-65
2021/03/23 03:54:10;;;;;;;17.02;9.30;;;5.10;99.90;;;;;;5038400;28;20056;-65
2021/03/23 03:56:36;;;;;;;14.85;8.52;;;5.10;99.90;;;;;;5026444;28;20161;-65
2021/03/23 03:59:02;;;;;;;17.98;8.50;;;5.20;99.90;;;;;;5039716;28;20081;-65
2021/03/23 04:01:28;;;;;;;20.40;10.18;;;5.20;99.90;;;;;;5027605;28;20045;-65
2021/03/23 04:03:54;;;;;;;17.50;9.27;;;5.10;99.90;;;;;;5034437;28;20053;-65
2021/03/23 04:06:20;;;;;;;18.27;9.35;;;5.20;99.90;;;;;;5028395;28;20061;-65
2021/03/23 04:08:46;;;;;;;21.70;9.50;;;5.30;99.90;;;;;;5039770;28;20097;-65
2021/03/23 04:11:12;;;;;;;19.35;9.75;;;5.10;99.90;;;;;;5030211;28;20049;-65
2021/03/23 04:13:38;;;;;;;17.05;9.75;;;5.20;99.90;;;;;;5034365;28;20042;-65
2021/03/23 04:16:05;;;;;;;17.85;9.32;;;5.20;99.90;;;;;;5032706;28;20054;-65
2021/03/23 04:18:31;;;;;;;20.80;10.87;;;5.20;99.90;;;;;;5029903;28;20129;-65
2021/03/23 04:21:00;;;;;;;20.15;10.45;;;5.20;99.90;;;;;;5039166;28;20076;-65
2021/03/23 04:23:35;;;;;;;22.88;11.35;;;5.80;99.90;;;;;;5033288;28;20077;-65
2021/03/23 04:26:02;;;;;;;20.30;10.68;;;5.00;99.90;;;;;;5033167;28;20054;-65
2021/03/23 04:28:28;;;;;;;15.80;9.98;;;5.20;99.90;;;;;;5039819;28;20045;-65
2021/03/23 04:30:55;;;;;;;23.23;11.05;;;5.10;99.90;;;;;;5039031;28;20042;-65
2021/03/23 04:33:23;;;;;;;22.23;12.65;;;5.20;99.90;;;;;;5045672;28;20512;-65
2021/03/23 04:35:52;;;;;;;27.33;11.55;;;5.20;99.90;;;;;;5036787;28;20133;-65
2021/03/23 04:38:30;;;;;;;21.13;11.48;;;5.10;99.90;;;;;;5035842;28;20049;-65
2021/03/23 04:40:58;;;;;;;22.10;11.95;;;5.10;99.90;;;;;;5033373;28;20057;-65
2021/03/23 04:43:33;;;;;;;19.88;11.57;;;5.10;99.90;;;;;;5029830;28;20051;-65
2021/03/23 04:46:00;;;;;;;21.60;12.35;;;5.20;99.90;;;;;;5037536;28;20103;-65
2021/03/23 04:48:26;;;;;;;21.20;11.33;;;5.10;99.90;;;;;;5028329;28;20054;-65
2021/03/23 04:50:53;;;;;;;28.95;13.20;;;5.30;99.90;;;;;;5039317;28;20076;-65
2021/03/23 04:53:31;;;;;;;24.92;13.25;;;5.20;99.90;;;;;;5041663;28;20103;-65
2021/03/23 04:55:58;;;;;;;25.83;12.93;;;5.10;99.90;;;;;;5040244;28;20077;-65
2021/03/23 04:58:25;;;;;;;23.77;11.63;;;5.30;99.90;;;;;;5035394;28;20068;-65
2021/03/23 05:00:51;;;;;;;22.30;11.77;;;5.20;99.90;;;;;;5040995;28;20063;-65
2021/03/23 05:03:19;;;;;;;27.95;13.00;;;5.20;99.90;;;;;;5044905;28;20038;-65
2021/03/23 05:05:45;;;;;;;27.60;12.57;;;5.30;99.90;;;;;;5040768;28;20327;-65
2021/03/23 05:08:11;;;;;;;23.00;11.63;;;5.20;99.90;;;;;;5031933;28;20348;-65
2021/03/23 05:10:37;;;;;;;20.85;11.80;;;5.30;99.90;;;;;;5029723;28;20041;-64
2021/03/23 05:13:03;;;;;;;27.40;11.95;;;5.00;99.90;;;;;;5035756;28;20363;-65
2021/03/23 05:15:30;;;;;;;19.23;11.57;;;5.10;99.90;;;;;;5041045;28;20050;-65
2021/03/23 05:17:55;;;;;;;23.10;12.07;;;5.10;99.90;;;;;;5034154;28;20109;-65
2021/03/23 05:20:22;;;;;;;30.70;12.63;;;5.10;99.90;;;;;;5039939;28;20049;-65
2021/03/23 05:22:48;;;;;;;22.27;12.73;;;5.00;99.90;;;;;;5029376;28;20053;-65
2021/03/23 05:25:14;;;;;;;30.67;18.60;;;5.00;99.90;;;;;;5028347;28;20536;-65
2021/03/23 05:27:40;;;;;;;31.77;16.58;;;5.00;99.90;;;;;;5038770;28;20045;-65
2021/03/23 05:30:08;;;;;;;28.90;15.48;;;4.90;99.90;;;;;;5030153;28;20140;-65
2021/03/23 05:32:33;;;;;;;34.25;18.75;;;5.00;99.90;;;;;;5033201;28;20045;-65
2021/03/23 05:34:59;;;;;;;52.08;23.98;;;5.00;99.90;;;;;;5030730;28;20133;-65
2021/03/23 05:37:25;;;;;;;61.03;25.70;;;4.80;99.90;;;;;;5036639;28;20327;-65
2021/03/23 05:39:51;;;;;;;58.63;26.10;;;4.90;99.90;;;;;;5029201;28;20620;-65
2021/03/23 05:43:04;;;;;;;56.33;25.30;;;4.90;99.90;;;;;;5036578;28;20050;-65
2021/03/23 05:45:39;;;;;;;71.82;29.45;;;4.80;99.90;;;;;;4983041;28;20058;-65
2021/03/23 05:48:18;;;;;;;73.22;31.73;;;4.70;99.90;;;;;;4983881;28;20182;-65
2021/03/23 05:51:01;;;;;;;86.47;33.42;;;4.60;99.90;;;;;;4979467;28;20557;-65
2021/03/23 05:53:50;;;;;;;90.55;35.28;;;4.70;99.90;;;;;;4974060;28;20113;-65
2021/03/23 05:56:16;;;;;;;;;;;4.90;99.90;;;;;;4982754;28;20075;-65
2021/03/23 05:58:50;;;;;;;109.53;40.30;;;4.70;99.90;;;;;;4985742;28;19930;-65
2021/03/23 06:01:25;;;;;;;101.82;38.95;;;4.50;99.90;;;;;;4983361;28;20130;-65
2021/03/23 06:03:51;;;;;;;94.28;40.65;;;4.70;99.90;;;;;;4983412;28;20061;-65
2021/03/23 06:06:25;;;;;;;103.40;38.97;;;4.50;99.90;;;;;;4982968;28;20058;-65
2021/03/23 06:08:51;;;;;;;117.32;39.08;;;4.70;99.90;;;;;;4983974;28;20063;-65
2021/03/23 06:11:29;;;;;;;117.32;41.65;;;4.50;99.90;;;;;;4989151;28;20059;-65
2021/03/23 06:14:30;;;;;;;118.47;41.47;;;4.70;99.90;;;;;;4983106;28;20062;-65
2021/03/23 06:17:11;;;;;;;108.53;38.35;;;4.80;99.90;;;;;;4983804;28;20318;-65
2021/03/23 06:19:50;;;;;;;92.97;34.90;;;4.60;99.90;;;;;;5017779;28;20065;-65
2021/03/23 06:22:34;;;;;;;106.55;40.67;;;4.70;99.90;;;;;;5032733;28;20053;-65
2021/03/23 06:25:43;;;;;;;107.43;39.35;;;4.80;99.90;;;;;;5036561;28;20042;-65
2021/03/23 06:28:28;;;;;;;117.30;41.05;;;4.80;99.90;;;;;;4992248;28;20042;-65
2021/03/23 06:31:02;;;;;;;135.63;42.35;;;4.60;99.90;;;;;;4979909;28;20054;-65
2021/03/23 06:33:30;;;;;;;131.90;43.38;;;4.50;99.90;;;;;;4982871;28;20062;-65
2021/03/23 06:36:00;;;;;;;;;;;4.80;99.90;;;;;;4983350;28;20077;-65
2021/03/23 06:38:36;;;;;;;118.60;39.83;;;4.60;99.90;;;;;;4982001;28;19926;-65
2021/03/23 06:41:26;;;;;;;112.93;42.75;;;4.80;99.90;;;;;;4979453;28;20051;-65
2021/03/23 06:44:16;;;;;;;125.00;41.78;;;4.90;99.90;;;;;;4980907;28;20047;-65
2021/03/23 06:46:45;;;;;;;122.72;41.40;;;4.90;99.90;;;;;;4981940;28;20059;-65
2021/03/23 06:49:14;;;;;;;119.70;41.97;;;4.90;99.90;;;;;;4979542;28;20066;-65
2021/03/23 06:51:53;;;;;;;131.32;44.00;;;5.00;99.90;;;;;;4981659;28;20435;-65
2021/03/23 06:54:24;;;;;;;117.65;41.15;;;4.80;99.90;;;;;;4981925;28;20423;-65
2021/03/23 06:57:21;;;;;;;127.32;44.13;;;5.00;99.90;;;;;;4975058;28;20111;-65
2021/03/23 07:00:14;;;;;;;121.82;41.70;;;5.00;99.90;;;;;;4941986;29;21028;-64
2021/03/23 07:02:42;;;;;;;136.63;45.72;;;4.80;99.90;;;;;;4948301;29;20054;-64
2021/03/23 07:05:17;;;;;;;115.80;43.00;;;5.20;99.90;;;;;;4945646;29;20048;-64
2021/03/23 07:08:13;;;;;;;114.75;40.95;;;5.00;99.90;;;;;;4942401;29;20051;-64
2021/03/23 07:10:43;;;;;;;118.57;43.03;;;5.20;99.90;;;;;;4928311;29;20059;-65
2021/03/23 07:13:29;;;;;;;121.20;44.17;;;5.20;99.90;;;;;;4941379;29;20063;-64
2021/03/23 07:16:25;;;;;;;106.22;42.90;;;5.30;99.90;;;;;;4946810;29;20055;-64
2021/03/23 07:18:51;;;;;;;109.85;44.28;;;5.30;99.90;;;;;;4935881;29;20092;-65
2021/03/23 07:21:29;;;;;;;117.68;45.25;;;5.30;99.90;;;;;;4942147;29;20056;-64
2021/03/23 07:24:10;;;;;;;103.60;41.50;;;5.40;99.90;;;;;;4941605;29;20058;-64
2021/03/23 07:26:40;;;;;;;108.90;45.38;;;5.50;99.90;;;;;;4940790;29;20082;-64
2021/03/23 07:29:12;;;;;;;105.10;42.15;;;5.40;99.90;;;;;;4940144;29;20090;-64
2021/03/23 07:31:57;;;;;;;92.25;38.10;;;5.70;99.90;;;;;;4941669;29;20077;-64
2021/03/23 07:34:53;;;;;;;100.53;43.35;;;5.50;99.90;;;;;;4936837;29;20047;-65
2021/03/23 07:37:40;;;;;;;108.57;45.83;;;5.60;99.90;;;;;;5008307;28;20054;-65
2021/03/23 07:40:31;;;;;;;91.45;41.65;;;5.80;99.90;;;;;;5011484;28;20065;-64
2021/03/23 07:43:15;;;;;;;98.03;41.03;;;5.80;99.90;;;;;;5021764;28;20060;-66
2021/03/23 07:45:55;;;;;;;100.38;39.55;;;5.80;99.90;;;;;;5019278;28;20057;-64
2021/03/23 07:48:47;;;;;;;97.63;43.22;;;5.90;99.90;;;;;;5008653;28;20050;-65
2021/03/23 07:51:27;;;;;;;88.80;41.70;;;6.00;99.90;;;;;;5018877;28;20050;-65
2021/03/23 07:54:02;;;;;;;96.72;40.92;;;5.90;99.90;;;;;;5004268;28;20046;-66
2021/03/23 07:56:55;;;;;;;95.85;42.05;;;5.90;99.90;;;;;;5024233;28;20050;-64
2021/03/23 07:59:26;;;;;;;89.25;39.65;;;6.10;99.90;;;;;;5011685;28;20153;-66
2021/03/23 08:02:02;;;;;;;90.75;39.58;;;5.90;99.90;;;;;;5024533;28;20049;-64
2021/03/23 08:04:46;;;;;;;91.60;38.85;;;6.00;99.90;;;;;;5023497;28;20045;-65
2021/03/23 08:07:23;;;;;;;80.28;41.35;;;6.30;99.90;;;;;;5018944;28;20042;-64
2021/03/23 08:10:04;;;;;;;84.47;35.95;;;6.10;99.90;;;;;;5024554;28;20073;-65
2021/03/23 08:12:48;;;;;;;84.55;37.53;;;6.00;99.90;;;;;;5025893;28;20045;-64
2021/03/23 08:15:32;;;;;;;86.82;39.75;;;6.00;99.90;;;;;;5018800;28;20049;-64
2021/03/23 08:18:15;;;;;;;79.93;38.10;;;6.20;99.90;;;;;;5027002;28;20057;-64
2021/03/23 08:20:52;;;;;;;68.38;35.05;;;6.30;99.90;;;;;;5024705;28;20494;-64
2021/03/23 08:23:39;;;;;;;67.63;35.45;;;6.10;99.90;;;;;;5033000;28;20130;-65
2021/03/23 08:26:34;;;;;;;64.03;32.35;;;6.20;99.90;;;;;;5045401;28;20049;-64
2021/03/23 08:29:18;;;;;;;64.53;33.53;;;6.30;99.90;;;;;;5045736;28;20037;-64
2021/03/23 08:32:12;;;;;;;64.20;31.63;;;6.20;99.90;;;;;;5046395;28;20038;-66
2021/03/23 08:34:55;;;;;;;59.05;31.98;;;6.50;99.90;;;;;;5042893;28;20042;-66
2021/03/23 08:37:35;;;;;;;55.42;30.73;;;6.50;99.90;;;;;;5045962;28;20068;-65
2021/03/23 08:40:22;;;;;;;50.33;28.75;;;6.50;99.90;;;;;;5044662;28;20053;-66
2021/03/23 08:42:49;;;;;;;53.33;30.05;;;6.50;99.90;;;;;;5038097;28;20057;-69
2021/03/23 08:45:23;;;;;;;53.65;29.77;;;6.70;99.90;;;;;;5044088;28;20048;-67
2021/03/23 08:48:01;;;;;;;47.20;26.55;;;6.80;99.90;;;;;;5040977;28;20069;-67
2021/03/23 08:50:35;;;;;;;46.72;25.85;;;6.70;99.90;;;;;;5043150;28;20069;-65
2021/03/23 08:53:04;;;;;;;45.75;23.67;;;6.80;99.90;;;;;;5040256;28;20056;-67
2021/03/23 08:55:31;;;;;;;34.85;22.88;;;6.90;99.90;;;;;;5043558;28;20465;-67
2021/03/23 08:58:09;;;;;;;40.80;23.90;;;6.80;99.90;;;;;;5036874;28;20053;-65
2021/03/23 09:00:34;;;;;;;41.88;25.23;;;6.70;99.90;;;;;;5044038;28;20037;-63
2021/03/23 09:03:21;;;;;;;37.10;22.45;;;6.70;99.90;;;;;;5029915;28;20079;-63
2021/03/23 09:05:50;;;;;;;38.00;23.23;;;6.90;99.90;;;;;;5031925;28;20103;-62
2021/03/23 09:08:45;;;;;;;38.92;24.55;;;7.10;99.90;;;;;;5043781;28;20072;-63
2021/03/23 09:11:14;;;;;;;38.63;22.98;;;7.20;99.90;;;;;;5044022;28;20150;-63
2021/03/23 09:13:39;;;;;;;42.88;22.83;;;7.30;99.90;;;;;;5043285;28;20136;-62
2021/03/23 09:16:11;;;;;;;42.42;22.38;;;7.50;99.90;;;;;;5043791;28;20071;-62
2021/03/23 09:19:03;;;;;;;38.47;22.60;;;7.30;99.90;;;;;;5043834;28;20068;-62
2021/03/23 09:21:55;;;;;;;39.42;23.40;;;7.40;99.90;;;;;;5041934;28;20469;-63
2021/03/23 09:24:33;;;;;;;37.45;19.75;;;7.30;99.90;;;;;;5037064;28;20060;-63
2021/03/23 09:27:01;;;;;;;37.58;21.58;;;7.40;99.90;;;;;;5037564;28;20111;-63
2021/03/23 09:29:43;;;;;;;32.35;20.65;;;7.30;99.90;;;;;;5059936;28;20501;-62
2021/03/23 09:32:11;;;;;;;38.65;22.58;;;7.40;99.90;;;;;;5040577;28;20497;-62
2021/03/23 09:35:09;;;;;;;37.80;21.30;;;7.30;99.90;;;;;;5043470;28;20045;-62
2021/03/23 09:37:36;;;;;;;28.95;19.90;;;7.50;99.90;;;;;;5044039;28;20109;-63
2021/03/23 09:40:24;;;;;;;40.75;22.83;;;7.40;99.90;;;;;;5042919;28;20045;-62
2021/03/23 09:43:02;;;;;;;39.92;24.38;;;7.00;99.90;;;;;;5044726;28;20076;-62
2021/03/23 09:45:32;;;;;;;35.05;20.60;;;7.70;99.90;;;;;;5044681;28;20037;-63
2021/03/23 09:48:34;;;;;;;32.45;20.35;;;7.80;99.90;;;;;;5042933;28;20045;-63
2021/03/23 09:51:11;;;;;;;41.28;21.02;;;7.70;99.90;;;;;;5043804;28;20037;-63
2021/03/23 09:53:41;;;;;;;35.85;21.88;;;7.70;99.90;;;;;;5040402;28;20053;-63
2021/03/23 09:56:13;;;;;;;32.90;19.27;;;7.80;99.90;;;;;;5042383;28;20056;-63
2021/03/23 09:58:40;;;;;;;34.45;21.73;;;7.70;99.90;;;;;;5043085;28;20045;-63
2021/03/23 10:01:20;;;;;;;38.05;21.50;;;8.10;99.90;;;;;;5038798;28;20046;-63
2021/03/23 10:03:48;;;;;;;41.08;22.52;;;8.00;99.90;;;;;;5043631;28;20099;-63
2021/03/23 10:06:18;;;;;;;34.00;20.95;;;8.10;99.90;;;;;;5037237;28;20045;-64
2021/03/23 10:08:59;;;;;;;32.33;21.55;;;8.40;99.90;;;;;;5036484;28;20097;-65
2021/03/23 10:11:33;;;;;;;29.58;17.02;;;8.10;99.90;;;;;;5036863;28;20113;-66
2021/03/23 10:14:01;;;;;;;32.75;22.45;;;8.30;99.90;;;;;;5041564;28;20068;-66
2021/03/23 10:16:26;;;;;;;28.15;17.90;;;8.40;99.90;;;;;;5038266;28;20121;-66
2021/03/23 10:18:53;;;;;;;30.17;19.60;;;8.20;99.90;;;;;;5044932;28;20056;-67
2021/03/23 10:21:26;;;;;;;29.35;19.42;;;8.40;99.90;;;;;;5039438;28;20042;-68
2021/03/23 10:23:57;;;;;;;29.48;18.58;;;8.60;99.90;;;;;;5036808;28;20072;-68
2021/03/23 10:26:40;;;;;;;32.33;19.05;;;8.60;99.90;;;;;;5031064;28;20046;-66
2021/03/23 10:29:11;;;;;;;31.98;19.27;;;8.90;99.90;;;;;;5045625;28;20041;-65
2021/03/23 10:31:40;;;;;;;31.67;19.02;;;8.90;99.90;;;;;;5041326;28;20104;-65
2021/03/23 10:34:20;;;;;;;33.45;21.42;;;8.80;99.90;;;;;;5033872;28;20101;-64
2021/03/23 10:36:49;;;;;;;31.17;20.77;;;8.80;99.90;;;;;;5038099;28;20077;-64
2021/03/23 10:39:30;;;;;;;30.55;19.67;;;8.60;99.90;;;;;;5040040;28;20618;-64
2021/03/23 10:41:59;;;;;;;32.20;20.25;;;8.60;99.90;;;;;;5037783;28;20544;-64
2021/03/23 10:44:30;;;;;;;24.25;17.52;;;8.60;99.90;;;;;;5037760;28;20847;-61
2021/03/23 10:46:57;;;;;;;32.60;20.67;;;8.60;99.90;;;;;;5035598;28;20072;-64
2021/03/23 10:49:27;;;;;;;33.42;22.02;;;8.70;99.90;;;;;;5037754;28;20046;-64
2021/03/23 10:52:00;;;;;;;31.02;20.77;;;9.00;99.90;;;;;;5036308;28;20042;-64
2021/03/23 10:54:29;;;;;;;30.45;21.30;;;9.10;99.90;;;;;;5040021;28;20057;-65
2021/03/23 10:56:59;;;;;;;27.00;18.15;;;9.30;99.90;;;;;;5036467;28;20052;-67
2021/03/23 10:59:34;;;;;;;30.40;18.38;;;9.40;99.60;;;;;;5040132;28;20552;-65
2021/03/23 11:02:06;;;;;;;32.35;21.92;;;9.40;99.60;;;;;;5029867;28;20436;-65
2021/03/23 11:04:37;;;;;;;32.22;21.35;;;9.40;99.30;;;;;;5033409;28;20063;-65
2021/03/23 11:07:16;;;;;;;30.95;20.25;;;9.30;99.80;;;;;;5040149;28;20121;-63
2021/03/23 11:09:42;;;;;;;31.23;19.98;;;9.40;99.20;;;;;;5028214;28;20056;-65
2021/03/23 11:12:08;;;;;;;28.27;20.55;;;9.70;99.20;;;;;;5029884;28;20049;-63
2021/03/23 11:14:34;;;;;;;28.55;20.05;;;10.00;98.20;;;;;;5036929;28;20067;-70
2021/03/23 11:17:03;;;;;;;35.83;20.33;;;10.40;97.90;;;;;;5033454;28;20037;-64
2021/03/23 11:19:32;;;;;;;25.45;19.58;;;10.60;98.40;;;;;;5033611;28;20046;-67
2021/03/23 11:22:05;;;;;;;37.97;21.15;;;10.90;98.10;;;;;;5030799;28;20144;-67
2021/03/23 11:24:34;;;;;;;28.08;20.25;;;11.10;97.60;;;;;;5032362;28;20340;-67
2021/03/23 11:27:01;;;;;;;30.52;19.45;;;11.00;97.20;;;;;;5032663;28;20044;-67
2021/03/23 11:29:27;;;;;;;30.25;19.90;;;10.80;96.70;;;;;;5039161;28;20037;-66
2021/03/23 11:31:53;;;;;;;30.25;20.90;;;10.90;96.10;;;;;;5034964;28;20058;-67
2021/03/23 11:34:20;;;;;;;27.52;19.40;;;10.90;97.30;;;;;;5035673;28;20046;-66
2021/03/23 11:36:46;;;;;;;31.40;21.88;;;10.70;95.00;;;;;;5034897;28;20041;-68
2021/03/23 11:39:13;;;;;;;35.03;22.25;;;11.10;96.60;;;;;;5036141;28;20052;-67
2021/03/23 11:41:48;;;;;;;32.90;21.65;;;10.90;96.00;;;;;;5033653;28;20052;-67
2021/03/23 11:44:24;;;;;;;32.08;22.70;;;11.00;95.80;;;;;;5033748;28;20049;-67
2021/03/23 11:46:57;;;;;;;30.27;20.48;;;10.90;95.80;;;;;;5031662;28;20418;-65
2021/03/23 11:49:58;;;;;;;27.38;20.05;;;10.90;95.60;;;;;;5034127;28;20490;-66
2021/03/23 11:52:24;;;;;;;27.35;20.73;;;11.20;96.20;;;;;;5004160;28;20081;-67
2021/03/23 11:54:51;;;;;;;28.92;21.50;;;11.50;95.20;;;;;;5035062;28;20497;-67
2021/03/23 11:57:18;;;;;;;31.70;22.20;;;11.80;95.40;;;;;;5040210;28;20101;-67
2021/03/23 11:59:44;;;;;;;28.67;20.98;;;11.20;93.50;;;;;;5035778;28;20091;-66
2021/03/23 12:02:11;;;;;;;26.63;20.92;;;11.20;94.40;;;;;;5037294;28;20100;-69
2021/03/23 12:04:37;;;;;;;33.25;23.55;;;11.40;94.30;;;;;;5037966;28;20042;-69
2021/03/23 12:07:41;;;;;;;32.30;24.13;;;11.40;94.70;;;;;;5036898;28;20045;-64
2021/03/23 12:10:32;;;;;;;33.03;22.48;;;11.80;94.20;;;;;;5034866;28;20077;-67
2021/03/23 12:13:08;;;;;;;32.58;20.90;;;11.50;92.50;;;;;;5039322;28;20069;-73
2021/03/23 12:16:02;;;;;;;27.80;21.33;;;11.70;92.90;;;;;;5033340;28;20089;-70
2021/03/23 12:18:30;;;;;;;29.30;22.02;;;12.00;93.60;;;;;;5036527;28;20132;-70
2021/03/23 12:21:00;;;;;;;32.47;21.83;;;11.90;94.40;;;;;;5036948;28;20147;-70
2021/03/23 12:23:27;;;;;;;28.63;19.70;;;11.60;93.30;;;;;;5033222;28;20053;-70
2021/03/23 12:25:54;;;;;;;31.55;23.77;;;11.40;93.30;;;;;;5024389;28;20050;-70
2021/03/23 12:28:21;;;;;;;38.13;23.42;;;11.20;94.20;;;;;;5036063;28;20042;-70
2021/03/23 12:30:46;;;;;;;32.92;23.55;;;11.10;94.70;;;;;;5039922;28;20107;-70
2021/03/23 12:33:12;;;;;;;33.00;22.23;;;11.00;95.10;;;;;;5036496;28;20046;-71
2021/03/23 12:35:38;;;;;;;35.35;22.83;;;10.60;94.60;;;;;;5038549;28;20041;-69
2021/03/23 12:38:07;;;;;;;29.25;20.52;;;10.90;95.80;;;;;;5036537;28;20045;-70
2021/03/23 12:40:34;;;;;;;35.30;24.23;;;11.10;95.30;;;;;;5038662;28;20057;-70
2021/03/23 12:43:01;;;;;;;31.53;21.73;;;11.20;95.40;;;;;;5043992;28;20053;-70
2021/03/23 12:45:28;;;;;;;32.67;22.55;;;10.70;95.10;;;;;;5042320;28;20042;-70
2021/03/23 12:47:54;;;;;;;37.25;24.63;;;10.70;95.10;;;;;;5043384;28;20060;-70
2021/03/23 12:50:22;;;;;;;39.67;24.27;;;10.80;96.10;;;;;;5043111;28;20045;-70
2021/03/23 12:52:48;;;;;;;35.13;23.50;;;10.90;95.80;;;;;;5043567;28;20053;-70
2021/03/23 12:55:22;;;;;;;34.60;22.95;;;10.80;95.50;;;;;;5041713;28;20049;-70
2021/03/23 12:57:53;;;;;;;35.28;24.67;;;10.70;95.30;;;;;;5042126;28;20463;-69
2021/03/23 13:00:27;;;;;;;37.10;25.58;;;10.50;95.30;;;;;;5042017;28;20097;-70
2021/03/23 13:02:54;;;;;;;33.65;22.88;;;11.10;95.90;;;;;;5043818;28;20056;-70
2021/03/23 13:05:21;;;;;;;34.95;22.55;;;11.40;95.10;;;;;;5043238;28;20041;-70